Juzhno-Kuril'Sk, Russia
Current Conditions -  °F | °C
As of 12:00 PM on Thursday 18 Dec 2014 (Local Time) from RJCM Reporting Station
Blowing Snow Blowing Snow  
Wind Chill: 18°   Ceiling: 1100
Heat Index: 32°   Visibility: 1.2mi
Dew Point: 27°   Wind: 30mph
Humidity: 80%   Direction: 360°N
Pressure: 29.44"   Gusts: 44mph
Location:  44.02°N, 145.87°E
Report Text: RJCM 180100Z 36026G38KT 2000 R18/1200VP1800U BLSN -SHSN FEW004 SCT008 BKN011 M00/M03 Q0997
Loading
Personal Weather Stations






























Interactive Weather Map New forecast layout! Learn more

10-Day Weather Forecast

Advertisements
Track Severe Weather on mobile